aviador You're here:

KBNO Decoded Metar

BURNS in OR, USA
Report Time2017-06-24 21:53:00
UTC Time2017-06-24 22:14:16
Flight Rules vfr VFR
Wind100° at 06 kt
W.Decomp.*RWY 12: 4.7 kt HW 3.7 kt LCW
RWY 03: 3.7 kt HW 4.7 kt RCW
W.Rank100° ranks 36
Current wind is above 100° avg. (5.3)
Visibility9999 m
Phenomena:N/A
Clouds:N/A
Expected CloudBase > 11,200 ft AGL from Temp-Dew spread
CeilingNone
Temp29°C (ISA +22)
Dew Point01°C (16% RH)
Heat Index27.4°C
AAT24.9°C
QNH1023 hPa
Density Alt6,430 ft
Elevation4,147 ft
Report Wrong Elevation
Raw Report
METAR KBNO 242153Z AUTO 10006KT 10SM CLR 29/01 A3020 RMK AO2 SLP195
T02940011=

Extra information for KBNO:More info

Metar Taf Metar & Taf Last 4 Metars F.Rules Stats Wind Profile Meteogram Temp Stats Airport Information Weather charts Add Link Nearby VenuesMetar ALERT Operation Metar Decoded Social comments

AIRNAV info for KBNO